createdAt,value
2019-04-07T00:00:26.483Z,98297.67
2019-04-07T00:02:53.569Z,98297.33
2019-04-07T00:05:21.051Z,98296.67
2019-04-07T00:07:49.524Z,98301.59
2019-04-07T00:10:16.640Z,98298.85
2019-04-07T00:12:44.103Z,98307.09
2019-04-07T00:15:11.586Z,98306.67
2019-04-07T00:17:39.173Z,98302.41
2019-04-07T00:20:07.280Z,98302.83
2019-04-07T00:22:34.537Z,98303.75
2019-04-07T00:25:02.478Z,98303.77
2019-04-07T00:27:29.051Z,98299.56
2019-04-07T00:29:56.529Z,98298.16
2019-04-07T00:32:24.938Z,98295.03
2019-04-07T00:34:51.825Z,98306.78
2019-04-07T00:37:18.956Z,98302.55
2019-04-07T00:39:46.658Z,98298.05
2019-04-07T00:42:13.851Z,98295.97
2019-04-07T00:44:41.302Z,98301.66
2019-04-07T00:47:08.766Z,98304.04
2019-04-07T00:49:36.876Z,98305.06
2019-04-07T00:52:06.159Z,98302.30
2019-04-07T00:54:33.686Z,98304.19
2019-04-07T00:57:01.167Z,98303.27
2019-04-07T00:59:28.719Z,98302.92
2019-04-07T01:01:56.739Z,98300.33
2019-04-07T01:04:24.127Z,98303.52
2019-04-07T01:06:51.194Z,98298.30
2019-04-07T01:09:18.749Z,98298.34
2019-04-07T01:11:46.156Z,98301.02
2019-04-07T01:14:13.638Z,98291.75
2019-04-07T01:16:41.761Z,98297.86
2019-04-07T01:19:08.834Z,98295.00
2019-04-07T01:21:36.132Z,98292.50
2019-04-07T01:24:03.609Z,98287.99
2019-04-07T01:26:31.792Z,98288.32
2019-04-07T01:28:59.208Z,98293.98
2019-04-07T01:31:26.039Z,98291.19
2019-04-07T01:33:53.511Z,98294.52
2019-04-07T01:36:21.471Z,98294.63
2019-04-07T01:38:48.631Z,98294.02
2019-04-07T01:41:21.718Z,98293.98
2019-04-07T01:43:53.696Z,98297.52
2019-04-07T01:46:22.117Z,98291.83
2019-04-07T01:49:05.325Z,98293.50
2019-04-07T01:51:42.711Z,98300.20
2019-04-07T01:54:11.940Z,98300.65
2019-04-07T01:56:55.275Z,98299.45
2019-04-07T01:59:37.537Z,98296.70
2019-04-07T02:02:10.090Z,98301.39
2019-04-07T02:04:41.149Z,98296.05
2019-04-07T02:07:12.978Z,98292.97
2019-04-07T02:09:55.634Z,98286.80
2019-04-07T02:12:32.338Z,98289.14
2019-04-07T02:15:00.949Z,98281.81
2019-04-07T02:17:33.467Z,98284.70
2019-04-07T02:20:06.857Z,98286.78
2019-04-07T02:22:53.175Z,98286.03
2019-04-07T02:25:20.898Z,98295.76
2019-04-07T02:27:53.094Z,98296.26
2019-04-07T02:30:25.865Z,98295.00
2019-04-07T02:32:54.397Z,98294.20
2019-04-07T02:35:34.730Z,98289.94
2019-04-07T02:40:41.020Z,98292.42
2019-04-07T02:43:17.866Z,98285.67
2019-04-07T02:46:04.373Z,98296.16
2019-04-07T02:48:37.522Z,98298.33
2019-04-07T02:51:10.406Z,98295.17
2019-04-07T02:53:39.193Z,98289.77
2019-04-07T02:56:25.134Z,98293.01
2019-04-07T02:59:10.114Z,98287.45
2019-04-07T03:01:43.420Z,98291.84
2019-04-07T03:04:12.769Z,98287.72
2019-04-07T03:06:47.501Z,98285.28
2019-04-07T03:09:24.118Z,98284.43
2019-04-07T03:11:53.841Z,98284.10
2019-04-07T03:14:21.652Z,98283.02
2019-04-07T03:16:54.223Z,98289.20
2019-04-07T03:19:23.384Z,98288.03
2019-04-07T03:21:54.221Z,98290.12
2019-04-07T03:24:21.297Z,98295.19
2019-04-07T03:26:54.147Z,98296.61
2019-04-07T03:29:38.480Z,98289.20
2019-04-07T03:32:08.495Z,98293.55
2019-04-07T03:34:51.516Z,98289.56
2019-04-07T03:37:35.319Z,98290.52
2019-04-07T03:39:54.737Z,98293.80
2019-04-07T03:42:26.811Z,98288.05
2019-04-07T03:44:56.643Z,98294.52
2019-04-07T03:47:24.233Z,98293.21
2019-04-07T03:49:53.506Z,98284.96
2019-04-07T03:52:37.875Z,98288.88
2019-04-07T03:55:16.989Z,98284.64
2019-04-07T03:57:49.409Z,98280.28
2019-04-07T04:00:46.053Z,98282.11
2019-04-07T04:03:13.356Z,98275.61
2019-04-07T04:05:47.700Z,98283.38
2019-04-07T04:08:18.721Z,98279.71
2019-04-07T04:10:51.927Z,98274.70
2019-04-07T04:13:29.286Z,98282.03
2019-04-07T04:15:56.813Z,98278.80
2019-04-07T04:18:24.215Z,98286.05
2019-04-07T04:20:51.673Z,98284.05
2019-04-07T04:23:19.802Z,98288.27
2019-04-07T04:25:47.089Z,98284.17
2019-04-07T04:28:14.308Z,98289.84
2019-04-07T04:30:45.425Z,98290.95
2019-04-07T04:33:12.901Z,98297.66
2019-04-07T04:35:40.927Z,98296.33
2019-04-07T04:38:08.139Z,98300.39
2019-04-07T04:40:36.041Z,98304.69
2019-04-07T04:43:02.915Z,98298.06
2019-04-07T04:45:30.324Z,98300.11
2019-04-07T04:47:57.791Z,98298.97
2019-04-07T04:50:25.805Z,98309.73
2019-04-07T04:52:52.700Z,98311.25
2019-04-07T04:55:20.158Z,98307.72
2019-04-07T04:57:47.989Z,98312.89
2019-04-07T05:00:15.790Z,98308.03
2019-04-07T05:02:42.567Z,98310.68
2019-04-07T05:05:10.898Z,98323.31
2019-04-07T05:07:49.852Z,98322.45
2019-04-07T05:10:05.688Z,98321.95
2019-04-07T05:12:32.399Z,98315.38
2019-04-07T05:15:00.375Z,98325.08
2019-04-07T05:17:27.521Z,98325.52
2019-04-07T05:19:54.996Z,98325.54
2019-04-07T05:22:22.558Z,98331.63
2019-04-07T05:24:50.372Z,98329.44
2019-04-07T05:27:17.427Z,98335.08
2019-04-07T05:29:44.738Z,98335.70
2019-04-07T05:32:12.248Z,98334.95
2019-04-07T05:34:40.239Z,98332.73
2019-04-07T05:37:07.615Z,98339.39
2019-04-07T05:39:34.654Z,98349.56
2019-04-07T05:42:02.294Z,98353.80
2019-04-07T05:44:29.566Z,98351.56
2019-04-07T05:46:57.042Z,98357.03
2019-04-07T05:49:24.464Z,98355.89
2019-04-07T05:51:51.907Z,98361.55
2019-04-07T05:54:20.753Z,98362.89
2019-04-07T05:56:46.829Z,98354.28
2019-04-07T05:59:14.778Z,98362.52
2019-04-07T06:01:41.746Z,98362.77
2019-04-07T06:04:14.315Z,98367.95
2019-04-07T06:06:37.069Z,98377.14
2019-04-07T06:09:04.176Z,98380.22
2019-04-07T06:11:34.010Z,98380.90
2019-04-07T06:13:59.096Z,98377.23
2019-04-07T06:16:26.761Z,98381.18
2019-04-07T06:18:54.000Z,98386.41
2019-04-07T06:21:22.215Z,98381.66
2019-04-07T06:23:49.588Z,98378.66
2019-04-07T06:26:17.333Z,98373.95
2019-04-07T06:28:48.484Z,98374.53
2019-04-07T06:31:11.819Z,98371.05
2019-04-07T06:33:39.453Z,98371.38
2019-04-07T06:36:06.969Z,98382.86
2019-04-07T06:38:35.995Z,98376.77
2019-04-07T06:41:03.001Z,98381.05
2019-04-07T06:43:29.316Z,98383.53
2019-04-07T06:46:12.907Z,98384.47
2019-04-07T06:48:55.110Z,98385.89
2019-04-07T06:51:22.351Z,98379.47
2019-04-07T06:53:50.520Z,98383.23
2019-04-07T06:56:19.658Z,98387.33
2019-04-07T06:58:59.169Z,98387.50
2019-04-07T07:01:32.422Z,98391.98
2019-04-07T07:04:16.770Z,98387.84
2019-04-07T07:06:48.263Z,98392.93
2019-04-07T07:09:20.112Z,98396.53
2019-04-07T07:11:52.594Z,98395.56
2019-04-07T07:14:32.888Z,98392.33
2019-04-07T07:16:51.072Z,98396.14
2019-04-07T07:19:26.345Z,98395.83
2019-04-07T07:21:57.968Z,98395.08
2019-04-07T07:24:26.492Z,98396.40
2019-04-07T07:26:52.930Z,98399.25
2019-04-07T07:29:20.346Z,98394.81
2019-04-07T07:31:48.331Z,98398.51
2019-04-07T07:34:16.314Z,98396.50
2019-04-07T07:36:43.248Z,98402.83
2019-04-07T07:39:12.553Z,98402.66
2019-04-07T07:41:38.897Z,98400.98
2019-04-07T07:44:07.850Z,98401.66
2019-04-07T07:46:34.360Z,98404.41
2019-04-07T07:49:02.078Z,98401.14
2019-04-07T07:51:29.388Z,98403.39
2019-04-07T07:53:59.769Z,98398.95
2019-04-07T07:56:24.513Z,98403.53
2019-04-07T07:58:52.979Z,98403.08
2019-04-07T08:01:19.948Z,98402.91
2019-04-07T08:03:51.723Z,98406.98
2019-04-07T08:06:15.151Z,98409.89
2019-04-07T08:08:45.226Z,98407.47
2019-04-07T08:11:11.218Z,98406.45
2019-04-07T08:13:43.356Z,98413.02
2019-04-07T08:16:06.375Z,98408.70
2019-04-07T08:18:36.174Z,98408.19
2019-04-07T08:21:01.243Z,98404.91
2019-04-07T08:23:28.723Z,98404.72
2019-04-07T08:25:57.851Z,98411.61
2019-04-07T08:28:24.334Z,98410.83
2019-04-07T08:30:51.947Z,98408.97
2019-04-07T08:33:20.198Z,98410.09
2019-04-07T08:35:47.953Z,98405.45
2019-04-07T08:38:18.632Z,98414.30
2019-04-07T08:40:42.137Z,98409.95
2019-04-07T08:43:09.740Z,98413.24
2019-04-07T08:45:37.198Z,98411.34
2019-04-07T08:48:05.159Z,98418.07
2019-04-07T08:50:32.258Z,98412.91
2019-04-07T08:52:59.735Z,98408.74
2019-04-07T08:55:28.215Z,98414.48
2019-04-07T08:57:56.253Z,98417.16
2019-04-07T09:00:23.821Z,98417.66
2019-04-07T09:03:01.788Z,98421.73
2019-04-07T09:05:23.039Z,98411.50
2019-04-07T09:07:47.215Z,98411.98
2019-04-07T09:10:18.725Z,98411.94
2019-04-07T09:12:44.116Z,98422.29
2019-04-07T09:15:12.837Z,98417.96
2019-04-07T09:17:45.967Z,98423.53
2019-04-07T09:20:13.517Z,98427.72
2019-04-07T09:22:43.590Z,98417.44
2019-04-07T09:25:17.215Z,98423.77
2019-04-07T09:27:48.611Z,98428.26
2019-04-07T09:30:17.306Z,98423.22
2019-04-07T09:32:46.041Z,98423.75
2019-04-07T09:35:14.449Z,98430.50
2019-04-07T09:37:56.302Z,98429.48
2019-04-07T09:40:42.467Z,98424.02
2019-04-07T09:43:11.164Z,98423.64
2019-04-07T09:45:43.662Z,98426.42
2019-04-07T09:48:11.483Z,98426.72
2019-04-07T09:50:55.443Z,98421.06
2019-04-07T09:53:21.523Z,98423.48
2019-04-07T09:55:56.859Z,98413.44
2019-04-07T09:58:26.294Z,98420.72
2019-04-07T10:00:57.700Z,98420.12
2019-04-07T10:03:27.860Z,98416.36
2019-04-07T10:05:56.292Z,98414.31
2019-04-07T10:08:30.316Z,98420.40
2019-04-07T10:10:58.358Z,98426.77
2019-04-07T10:13:30.680Z,98426.31
2019-04-07T10:16:02.361Z,98420.98
2019-04-07T10:18:36.730Z,98413.65
2019-04-07T10:21:03.241Z,98415.20
2019-04-07T10:23:36.435Z,98417.47
2019-04-07T10:26:09.466Z,98416.84
2019-04-07T10:28:43.037Z,98422.17
2019-04-07T10:31:09.673Z,98421.13
2019-04-07T10:33:53.927Z,98418.65
2019-04-07T10:36:39.416Z,98416.60
2019-04-07T10:39:09.430Z,98421.13
2019-04-07T10:41:50.902Z,98423.28
2019-04-07T10:44:34.072Z,98419.25
2019-04-07T10:47:07.159Z,98412.70
2019-04-07T10:49:40.683Z,98419.45
2019-04-07T10:52:14.705Z,98413.16
2019-04-07T10:54:56.370Z,98420.86
2019-04-07T10:57:28.948Z,98415.45
2019-04-07T10:59:55.789Z,98417.60
2019-04-07T11:02:28.006Z,98417.31
2019-04-07T11:04:56.338Z,98420.77
2019-04-07T11:07:24.953Z,98418.86
2019-04-07T11:09:53.077Z,98419.35
2019-04-07T11:12:37.881Z,98415.37
2019-04-07T11:15:07.103Z,98424.78
2019-04-07T11:17:35.017Z,98418.66
2019-04-07T11:20:05.428Z,98423.08
2019-04-07T11:22:38.434Z,98424.00
2019-04-07T11:25:07.851Z,98416.25
2019-04-07T11:27:50.417Z,98416.78
2019-04-07T11:30:18.120Z,98413.80
2019-04-07T11:32:47.857Z,98411.84
2019-04-07T11:35:21.115Z,98413.45
2019-04-07T11:37:49.241Z,98411.66
2019-04-07T11:40:22.645Z,98411.11
2019-04-07T11:42:52.379Z,98415.33
2019-04-07T11:45:23.705Z,98417.48
2019-04-07T11:48:06.574Z,98417.84
2019-04-07T11:50:36.326Z,98420.73
2019-04-07T11:53:09.092Z,98409.11
2019-04-07T11:55:36.621Z,98407.69
2019-04-07T11:58:24.055Z,98411.62
2019-04-07T12:01:02.431Z,98412.03
2019-04-07T12:03:35.602Z,98405.63
2019-04-07T12:06:11.631Z,98407.77
2019-04-07T12:08:44.594Z,98405.97
2019-04-07T12:11:17.976Z,98404.36
2019-04-07T12:13:50.951Z,98402.47
2019-04-07T12:16:27.739Z,98399.56
2019-04-07T12:18:57.875Z,98405.28
2019-04-07T12:21:44.950Z,98403.34
2019-04-07T12:24:13.543Z,98393.77
2019-04-07T12:26:51.773Z,98395.40
2019-04-07T12:29:25.454Z,98402.77
2019-04-07T12:31:57.857Z,98403.19
2019-04-07T12:34:29.630Z,98404.87
2019-04-07T12:37:12.276Z,98404.93
2019-04-07T12:39:55.498Z,98404.13
2019-04-07T12:42:40.305Z,98397.64
2019-04-07T12:45:24.245Z,98403.52
2019-04-07T12:47:58.360Z,98401.02
2019-04-07T12:50:35.453Z,98404.69
2019-04-07T12:53:05.918Z,98406.79
2019-04-07T12:55:37.569Z,98400.80
2019-04-07T12:58:09.784Z,98405.69
2019-04-07T13:00:44.618Z,98397.28
2019-04-07T13:03:04.445Z,98409.03
2019-04-07T13:05:35.510Z,98407.13
2019-04-07T13:08:02.749Z,98408.72
2019-04-07T13:10:40.614Z,98401.11
2019-04-07T13:13:31.647Z,98403.75
2019-04-07T13:16:12.290Z,98398.83
2019-04-07T13:18:57.568Z,98392.05
2019-04-07T13:21:26.706Z,98394.64
2019-04-07T13:24:10.767Z,98395.06
2019-04-07T13:26:33.601Z,98389.59
2019-04-07T13:29:14.600Z,98393.89
2019-04-07T13:31:58.362Z,98397.23
2019-04-07T13:34:43.943Z,98402.39
2019-04-07T13:37:12.436Z,98393.05
2019-04-07T13:39:42.924Z,98399.20
2019-04-07T13:42:11.342Z,98401.06
2019-04-07T13:44:45.563Z,98399.14
2019-04-07T13:47:31.933Z,98399.06
2019-04-07T13:50:13.762Z,98387.37
2019-04-07T13:52:42.437Z,98392.69
2019-04-07T13:55:28.507Z,98387.75
2019-04-07T13:58:00.675Z,98391.84
2019-04-07T14:00:29.094Z,98398.88
2019-04-07T14:02:59.095Z,98392.44
2019-04-07T14:05:43.051Z,98389.95
2019-04-07T14:08:16.053Z,98395.87
2019-04-07T14:10:43.847Z,98392.14
2019-04-07T14:13:28.244Z,98395.53
2019-04-07T14:16:02.913Z,98400.47
2019-04-07T14:18:35.643Z,98404.22
2019-04-07T14:21:06.526Z,98393.91
2019-04-07T14:23:39.450Z,98403.02
2019-04-07T14:26:25.839Z,98391.28
2019-04-07T14:29:08.653Z,98397.01
2019-04-07T14:31:37.930Z,98389.98
2019-04-07T14:34:10.749Z,98392.19
2019-04-07T14:36:43.918Z,98383.86
2019-04-07T14:39:12.852Z,98392.41
2019-04-07T14:42:04.972Z,98394.95
2019-04-07T14:44:25.922Z,98390.78
2019-04-07T14:47:00.034Z,98395.30
2019-04-07T14:49:29.806Z,98399.77
2019-04-07T14:51:58.540Z,98398.30
2019-04-07T14:54:30.549Z,98401.80
2019-04-07T14:56:59.764Z,98403.55
2019-04-07T14:59:33.056Z,98405.52
2019-04-07T15:02:02.085Z,98407.06
2019-04-07T15:04:38.638Z,98410.56
2019-04-07T15:07:23.670Z,98401.64
2019-04-07T15:09:58.508Z,98407.95
2019-04-07T15:12:44.155Z,98407.05
2019-04-07T15:15:11.894Z,98406.33
2019-04-07T15:17:39.274Z,98402.43
2019-04-07T15:20:07.457Z,98403.68
2019-04-07T15:22:34.599Z,98398.66
2019-04-07T15:25:01.511Z,98401.05
2019-04-07T15:27:29.657Z,98402.48
2019-04-07T15:29:57.810Z,98402.89
2019-04-07T15:32:28.514Z,98406.55
2019-04-07T15:34:52.639Z,98397.89
2019-04-07T15:37:23.574Z,98400.17
2019-04-07T15:39:48.378Z,98395.39
2019-04-07T15:42:31.417Z,98402.05
2019-04-07T15:44:43.667Z,98404.33
2019-04-07T15:47:11.442Z,98404.50
2019-04-07T15:49:39.923Z,98405.27
2019-04-07T15:52:08.885Z,98401.47
2019-04-07T15:54:35.081Z,98406.81
2019-04-07T15:57:03.696Z,98407.00
2019-04-07T15:59:31.398Z,98409.56
2019-04-07T16:01:59.261Z,98412.41
2019-04-07T16:04:29.296Z,98414.45
2019-04-07T16:06:55.446Z,98414.14
2019-04-07T16:09:31.478Z,98417.30
2019-04-07T16:11:50.893Z,98419.23
2019-04-07T16:14:17.661Z,98415.20
2019-04-07T16:16:45.131Z,98413.03
2019-04-07T16:19:19.608Z,98421.02
2019-04-07T16:21:42.791Z,98415.50
2019-04-07T16:24:07.876Z,98418.74
2019-04-07T16:26:37.060Z,98416.66
2019-04-07T16:29:03.316Z,98421.51
2019-04-07T16:31:31.146Z,98414.38
2019-04-07T16:33:59.176Z,98426.28
2019-04-07T16:36:26.653Z,98431.36
2019-04-07T16:38:54.876Z,98425.55
2019-04-07T16:41:22.292Z,98433.34
2019-04-07T16:43:49.435Z,98432.69
2019-04-07T16:46:20.949Z,98435.62
2019-04-07T16:48:45.122Z,98439.73
2019-04-07T16:51:12.219Z,98445.77
2019-04-07T16:53:42.077Z,98436.43
2019-04-07T16:56:09.132Z,98444.19
2019-04-07T16:58:38.745Z,98447.92
2019-04-07T17:01:04.645Z,98442.31
2019-04-07T17:03:31.810Z,98451.45
2019-04-07T17:06:01.468Z,98448.33
2019-04-07T17:08:28.840Z,98448.63
2019-04-07T17:10:56.696Z,98451.55
2019-04-07T17:13:34.675Z,98454.64
2019-04-07T17:15:52.850Z,98464.36
2019-04-07T17:18:36.839Z,98462.65
2019-04-07T17:21:08.518Z,98461.73
2019-04-07T17:23:33.529Z,98461.84
2019-04-07T17:26:04.814Z,98460.78
2019-04-07T17:28:29.181Z,98466.78
2019-04-07T17:30:58.199Z,98466.76
2019-04-07T17:33:24.441Z,98464.78
2019-04-07T17:35:52.899Z,98470.47
2019-04-07T17:38:19.221Z,98476.56
2019-04-07T17:40:47.234Z,98484.30
2019-04-07T17:43:25.304Z,98479.95
2019-04-07T17:45:48.114Z,98478.51
2019-04-07T17:48:21.329Z,98490.08
2019-04-07T17:50:54.157Z,98494.33
2019-04-07T17:53:26.477Z,98492.23
2019-04-07T17:55:57.617Z,98490.03
2019-04-07T17:58:44.208Z,98497.23
2019-04-07T18:01:27.704Z,98500.56
2019-04-07T18:03:52.813Z,98504.08
2019-04-07T18:06:31.326Z,98502.30
2019-04-07T18:09:07.885Z,98504.30
2019-04-07T18:11:48.307Z,98503.84
2019-04-07T18:14:22.293Z,98508.34
2019-04-07T18:17:06.514Z,98513.36
2019-04-07T18:19:39.575Z,98518.00
2019-04-07T18:22:23.385Z,98523.45
2019-04-07T18:24:49.502Z,98521.10
2019-04-07T18:27:30.675Z,98522.39
2019-04-07T18:30:00.587Z,98529.30
2019-04-07T18:32:31.845Z,98526.36
2019-04-07T18:35:03.021Z,98535.84
2019-04-07T18:37:36.423Z,98533.91
2019-04-07T18:40:16.662Z,98542.55
2019-04-07T18:42:59.821Z,98540.04
2019-04-07T18:45:48.027Z,98545.91
2019-04-07T18:48:29.470Z,98547.71
2019-04-07T18:51:00.925Z,98557.75
2019-04-07T18:53:30.681Z,98558.53
2019-04-07T18:56:03.472Z,98558.00
2019-04-07T18:58:31.189Z,98568.51
2019-04-07T19:01:13.738Z,98571.55
2019-04-07T19:03:41.824Z,98573.20
2019-04-07T19:06:14.783Z,98578.86
2019-04-07T19:08:41.714Z,98577.77
2019-04-07T19:11:27.637Z,98577.41
2019-04-07T19:14:20.363Z,98584.94
2019-04-07T19:16:39.465Z,98581.22
2019-04-07T19:19:12.727Z,98589.06
2019-04-07T19:21:46.306Z,98591.11
2019-04-07T19:24:34.646Z,98596.39
2019-04-07T19:27:12.711Z,98593.91
2019-04-07T19:32:23.418Z,98602.42
2019-04-07T19:34:55.354Z,98601.25
2019-04-07T19:37:28.319Z,98597.22
2019-04-07T19:40:02.488Z,98604.17
2019-04-07T19:42:31.862Z,98609.72
2019-04-07T19:45:05.694Z,98606.11
2019-04-07T19:47:48.064Z,98603.11
2019-04-07T19:50:21.471Z,98608.20
2019-04-07T19:52:49.850Z,98604.45
2019-04-07T19:55:25.636Z,98602.30
2019-04-07T19:57:53.209Z,98601.56
2019-04-07T20:00:35.781Z,98608.10
2019-04-07T20:03:22.216Z,98604.00
2019-04-07T20:05:53.287Z,98609.30
2019-04-07T20:08:24.982Z,98606.27
2019-04-07T20:10:58.858Z,98615.31
2019-04-07T20:13:40.887Z,98608.39
2019-04-07T20:16:12.964Z,98614.02
2019-04-07T20:18:56.790Z,98617.36
2019-04-07T20:21:33.939Z,98609.09
2019-04-07T20:24:03.639Z,98618.42
2019-04-07T20:26:32.638Z,98613.05
2019-04-07T20:29:17.195Z,98622.83
2019-04-07T20:32:00.522Z,98620.56
2019-04-07T20:34:27.532Z,98620.83
2019-04-07T20:37:00.651Z,98618.10
2019-04-07T20:39:43.769Z,98625.03
2019-04-07T20:42:17.432Z,98621.20
2019-04-07T20:45:02.756Z,98626.95
2019-04-07T20:47:28.523Z,98629.98
2019-04-07T20:50:01.608Z,98625.33
2019-04-07T20:52:32.706Z,98629.98
2019-04-07T20:55:03.762Z,98623.75
2019-04-07T20:57:32.983Z,98626.48
2019-04-07T21:00:18.631Z,98625.62
2019-04-07T21:03:15.189Z,98617.70
2019-04-07T21:05:38.450Z,98624.27
2019-04-07T21:08:08.950Z,98621.98
2019-04-07T21:10:55.990Z,98619.88
2019-04-07T21:13:25.249Z,98628.92
2019-04-07T21:15:59.440Z,98623.30
2019-04-07T21:18:42.275Z,98628.68
2019-04-07T21:21:15.029Z,98623.91
2019-04-07T21:23:59.593Z,98629.07
2019-04-07T21:26:30.927Z,98626.19
2019-04-07T21:28:56.736Z,98626.88
2019-04-07T21:34:03.110Z,98627.75
2019-04-07T21:36:41.522Z,98636.13
2019-04-07T21:39:21.937Z,98632.38
2019-04-07T21:41:52.067Z,98631.34
2019-04-07T21:44:28.542Z,98630.83
2019-04-07T21:46:58.117Z,98632.44
2019-04-07T21:49:32.794Z,98632.50
2019-04-07T21:51:57.722Z,98632.75
2019-04-07T21:54:34.165Z,98638.97
2019-04-07T21:57:02.335Z,98635.31
2019-04-07T21:59:45.764Z,98637.83
2019-04-07T22:02:26.474Z,98638.31
2019-04-07T22:04:59.602Z,98645.47
2019-04-07T22:07:33.683Z,98645.64
2019-04-07T22:10:05.248Z,98645.67
2019-04-07T22:12:31.969Z,98645.44
2019-04-07T22:15:00.281Z,98652.40
2019-04-07T22:17:27.691Z,98654.84
2019-04-07T22:19:54.548Z,98650.84
2019-04-07T22:22:24.085Z,98651.48
2019-04-07T22:24:50.642Z,98651.03
2019-04-07T22:27:21.159Z,98652.75
2019-04-07T22:29:44.912Z,98657.77
2019-04-07T22:32:14.880Z,98651.27
2019-04-07T22:34:40.138Z,98659.81
2019-04-07T22:37:07.926Z,98655.98
2019-04-07T22:39:35.586Z,98661.53
2019-04-07T22:42:02.956Z,98664.15
2019-04-07T22:44:31.372Z,98653.63
2019-04-07T22:46:58.596Z,98650.78
2019-04-07T22:49:28.465Z,98657.95
2019-04-07T22:51:55.413Z,98653.16
2019-04-07T22:54:22.072Z,98652.08
2019-04-07T22:56:49.350Z,98653.14
2019-04-07T22:59:17.560Z,98652.48
2019-04-07T23:01:44.382Z,98655.35
2019-04-07T23:04:12.020Z,98657.56
2019-04-07T23:06:39.283Z,98651.64
2019-04-07T23:09:07.797Z,98651.99
2019-04-07T23:11:34.267Z,98653.98
2019-04-07T23:14:01.794Z,98651.61
2019-04-07T23:16:29.500Z,98658.45
2019-04-07T23:18:56.735Z,98660.69
2019-04-07T23:21:24.672Z,98667.67
2019-04-07T23:23:51.759Z,98654.65
2019-04-07T23:26:20.113Z,98658.51
2019-04-07T23:28:47.230Z,98656.53
2019-04-07T23:31:14.499Z,98659.83
2019-04-07T23:33:42.085Z,98656.84
2019-04-07T23:36:09.552Z,98661.34
2019-04-07T23:38:37.828Z,98657.07
2019-04-07T23:41:05.414Z,98655.05
2019-04-07T23:43:33.438Z,98658.16
2019-04-07T23:46:00.363Z,98655.22
2019-04-07T23:48:28.414Z,98659.81
2019-04-07T23:50:56.154Z,98656.73
2019-04-07T23:53:35.215Z,98661.95
2019-04-07T23:56:03.752Z,98663.61
2019-04-07T23:58:30.234Z,98662.24
